Latest Weather Observations for Hervey Bay

IDQ60801

Issued at 4:05 pm EST Tuesday 2 September 2014 (issued every 30 minutes, with the page automatically refreshed every 10 minutes)

About weather observations | Map of weather stations | Latest weather observations for QLD | Other Formats
Station Details ID: 040405 Name: HERVEY BAY AIRPORT Lat: -25.32 Lon: 152.88 Height: 12.98 m
Data from the previous 72 hours. | See also: Recent months at Hervey Bay
Date/Time
EST
Temp
°C
App
Temp
°C
Dew
Point
Rel
Hum
%
Delta-T
°C
Wind Press
QNH
hPa
Press
MSL
hPa
Rain
since 9 am
mm
Dir
 
Spd
km/h
Gust
km/h
Spd
kts
Gust
kts
02/04:00pm 21.9 18.0 14.3 62 4.5 N 28 41 15 22 1010.2 1010.1 0.0
02/03:30pm 21.7 17.9 14.6 64 4.2 N 28 44 15 24 1010.3 1010.2 0.0
02/03:00pm 21.7 18.0 15.1 66 3.9 N 28 39 15 21 1010.5 1010.4 0.0
02/02:30pm 22.3 19.0 14.9 63 4.4 N 26 43 14 23 1010.6 1010.5 0.0
02/02:00pm 22.5 18.8 15.1 63 4.4 N 28 43 15 23 1011.1 1011.0 0.0
02/01:30pm 22.5 18.7 15.8 66 4.0 N 30 46 16 25 1011.7 1011.6 0.0
02/01:00pm 22.1 18.6 16.6 71 3.3 NNW 30 43 16 23 1012.3 1012.2 0.0
02/12:30pm 21.5 18.1 16.7 74 2.9 N 30 43 16 23 1012.7 1012.6 0.0
02/12:00pm 22.1 18.5 17.2 74 3.0 NNW 32 44 17 24 1013.4 1013.3 0.0
02/11:30am 21.8 19.0 17.2 75 2.8 N 28 41 15 22 1014.1 1014.0 0.0
02/11:00am 21.5 18.2 16.9 75 2.8 NNW 30 39 16 21 1014.8 1014.7 0.0
02/10:30am 21.7 18.9 17.3 76 2.7 NNW 28 39 15 21 1015.3 1015.2 0.0
02/10:00am 21.4 18.6 17.4 78 2.5 NNW 28 39 15 21 1015.6 1015.5 0.0
02/09:30am 20.9 19.5 17.9 83 1.9 NNW 22 32 12 17 1016.1 1016.0 0.0
02/09:00am 19.8 18.6 17.0 84 1.7 NNW 19 28 10 15 1016.5 1016.4 0.2
02/08:30am 19.7 18.3 17.1 85 1.6 NNW 20 30 11 16 1016.4 1016.3 0.2
02/08:00am 19.6 18.5 17.2 86 1.5 NNW 19 28 10 15 1016.7 1016.6 0.2
02/07:30am 19.2 18.7 17.0 87 1.3 N 15 19 8 10 1016.4 1016.3 0.2
02/07:00am 18.7 17.7 16.7 88 1.2 NNW 17 20 9 11 1016.4 1016.3 0.2
02/06:30am 17.6 17.3 16.5 93 0.7 NNW 13 17 7 9 1016.2 1016.1 0.2
02/06:00am 16.7 16.6 16.1 96 0.4 NNW 11 13 6 7 1016.1 1016.0 0.2
02/05:37am 16.4 16.6 15.8 96 0.4 NNW 9 13 5 7 1016.1 1016.0 0.0
02/05:30am 16.2 16.3 15.4 95 0.5 NW 9 11 5 6 1016.1 1016.0 0.0
02/05:21am 16.5 16.8 15.9 96 0.4 NW 9 13 5 7 1016.0 1015.9 0.0
02/05:00am 16.8 16.4 16.3 97 0.3 WNW 13 17 7 9 1016.0 1015.9 0.0
02/04:39am 16.6 16.1 15.8 95 0.5 NW 13 15 7 8 1016.0 1015.9 0.0
02/04:32am 16.9 16.7 15.8 93 0.6 WNW 11 15 6 8 1015.9 1015.8 0.0
02/04:30am 17.0 16.9 15.9 93 0.6 WNW 11 15 6 8 1015.9 1015.8 0.0
02/04:00am 18.3 17.9 16.3 88 1.2 N 13 17 7 9 1015.9 1015.8 0.0
02/03:30am 18.2 17.9 16.4 89 1.1 N 13 17 7 9 1015.9 1015.8 0.0
02/03:00am 17.9 18.3 16.2 90 1.0 N 9 15 5 8 1015.9 1015.8 0.0
02/02:30am 18.0 18.4 16.2 89 1.1 N 9 13 5 7 1016.0 1015.9 0.0
02/02:00am 18.0 18.0 16.3 90 1.0 N 11 15 6 8 1016.2 1016.1 0.0
02/01:30am 18.0 18.4 16.2 89 1.1 N 9 15 5 8 1016.5 1016.4 0.0
02/01:00am 18.1 18.4 16.1 88 1.2 N 9 13 5 7 1016.8 1016.7 0.0
02/12:30am 18.4 18.3 16.0 86 1.4 N 11 17 6 9 1017.2 1017.1 0.0
02/12:00am 18.3 18.2 16.1 87 1.3 N 11 17 6 9 1017.2 1017.1 0.0
 
Date/Time
EST
Temp
°C
App
Temp
°C
Dew
Point
Rel
Hum
%
Delta-T
°C
Wind Press
QNH
hPa
Press
MSL
hPa
Rain
since 9 am
mm
Dir
 
Spd
km/h
Gust
km/h
Spd
kts
Gust
kts
01/11:30pm 18.5 18.6 16.5 88 1.2 N 11 15 6 8 1017.3 1017.2 0.0
01/11:00pm 18.6 18.4 16.8 89 1.1 N 13 19 7 10 1017.4 1017.3 0.0
01/10:30pm 18.4 18.6 16.7 90 1.0 N 11 15 6 8 1017.6 1017.5 0.0
01/10:00pm 18.2 18.3 16.4 89 1.1 N 11 15 6 8 1017.8 1017.7 0.0
01/09:30pm 18.2 18.7 16.5 90 1.0 N 9 13 5 7 1017.8 1017.7 0.0
01/09:00pm 18.2 18.3 16.5 90 1.0 N 11 15 6 8 1017.8 1017.7 0.0
01/08:30pm 18.4 18.5 16.6 89 1.1 N 11 15 6 8 1018.1 1018.0 0.0
01/08:00pm 18.4 18.5 16.6 89 1.1 N 11 15 6 8 1017.7 1017.6 0.0
01/07:30pm 18.5 18.6 16.5 88 1.2 N 11 15 6 8 1018.0 1017.9 0.0
01/07:00pm 18.6 18.6 16.2 86 1.4 N 11 15 6 8 1017.8 1017.7 0.0
01/06:30pm 18.7 18.3 16.3 86 1.4 N 13 19 7 10 1017.5 1017.4 0.0
01/06:00pm 19.1 18.7 16.1 83 1.8 N 13 19 7 10 1017.0 1016.9 0.0
01/05:30pm 19.3 18.8 15.8 80 2.1 N 13 20 7 11 1016.9 1016.8 0.0
01/05:00pm 20.2 19.0 16.0 77 2.5 N 17 22 9 12 1016.5 1016.4 0.0
01/04:30pm 20.8 19.5 14.9 69 3.5 N 15 20 8 11 1016.6 1016.5 0.0
01/04:00pm 21.4 20.0 15.5 69 3.5 N 17 24 9 13 1016.5 1016.4 0.0
01/03:30pm 21.6 19.4 15.0 66 3.9 N 20 26 11 14 1016.2 1016.1 0.0
01/03:00pm 22.1 19.7 13.7 59 4.9 N 19 26 10 14 1016.2 1016.1 0.0
01/02:30pm 22.6 20.3 14.2 59 4.9 N 19 24 10 13 1016.7 1016.6 0.0
01/02:00pm 22.7 20.6 13.7 56 5.2 N 17 24 9 13 1017.1 1017.0 0.0
01/01:30pm 23.3 21.1 14.3 57 5.3 N 19 28 10 15 1017.5 1017.4 0.0
01/01:00pm 22.9 20.7 13.4 55 5.5 N 17 22 9 12 1018.0 1017.9 0.0
01/12:30pm 22.9 21.3 13.9 57 5.3 NNW 15 20 8 11 1018.1 1018.0 0.0
01/12:00pm 22.6 21.1 14.2 59 4.9 NNW 15 20 8 11 1018.2 1018.1 0.0
01/11:30am 22.2 20.6 13.8 59 4.9 N 15 20 8 11 1018.6 1018.5 0.0
01/11:00am 22.4 21.9 14.8 62 4.5 N 11 17 6 9 1019.2 1019.1 0.0
01/10:30am 22.9 21.9 15.7 64 4.3 N 15 20 8 11 1020.1 1020.0 0.0
01/10:00am 20.8 20.2 14.5 67 3.7 WNW 11 15 6 8 1020.1 1020.0 0.0
01/09:30am 21.2 21.5 15.1 68 3.6 NNW 7 11 4 6 1020.2 1020.2 0.0
01/09:00am 20.5 22.0 15.7 74 2.9 WSW 2 9 1 5 1020.4 1020.4 0.2
01/08:30am 19.3 20.7 15.4 78 2.3 NE 2 7 1 4 1020.2 1020.2 0.2
01/08:00am 17.4 19.0 15.0 86 1.4 CALM 0 6 0 3 1019.8 1019.8 0.2
01/07:30am 15.6 16.9 14.1 91 0.8 CALM 0 0 0 0 1019.5 1019.5 0.2
01/07:00am 13.2 13.9 12.3 94 0.5 CALM 0 0 0 0 1019.3 1019.3 0.2
01/06:30am 11.3 11.5 10.5 95 0.4 CALM 0 0 0 0 1019.1 1019.1 0.2
01/06:00am 10.7 10.8 10.1 96 0.3 CALM 0 0 0 0 1019.0 1019.0 0.2
01/05:30am 10.8 9.8 10.2 96 0.3 SW 6 9 3 5 1018.8 1018.8 0.2
01/05:00am 10.5 9.8 9.9 96 0.3 S 4 7 2 4 1018.4 1018.4 0.2
01/04:30am 10.6 10.6 9.8 95 0.4 CALM 0 0 0 0 1018.2 1018.2 0.2
01/04:00am 10.8 10.9 10.0 95 0.4 CALM 0 0 0 0 1018.3 1018.3 0.2
01/03:30am 11.2 11.4 10.6 96 0.3 CALM 0 0 0 0 1018.2 1018.2 0.2
01/03:00am 10.7 10.0 10.1 96 0.3 SW 4 7 2 4 1018.1 1018.1 0.2
01/02:30am 10.7 10.3 9.9 95 0.4 WSW 2 7 1 4 1018.1 1018.1 0.2
01/02:00am 10.9 11.0 10.1 95 0.4 CALM 0 0 0 0 1018.3 1018.3 0.2
01/01:30am 11.2 11.4 10.4 95 0.4 CALM 0 0 0 0 1018.3 1018.3 0.2
01/01:00am 11.1 11.2 10.2 94 0.5 CALM 0 0 0 0 1018.6 1018.6 0.2
01/12:30am 11.3 11.5 10.4 94 0.5 CALM 0 0 0 0 1018.6 1018.6 0.2
01/12:00am 11.6 11.8 10.7 94 0.5 CALM 0 0 0 0 1018.8 1018.8 0.2
 
Date/Time
EST
Temp
°C
App
Temp
°C
Dew
Point
Rel
Hum
%
Delta-T
°C
Wind Press
QNH
hPa
Press
MSL
hPa
Rain
since 9 am
mm
Dir
 
Spd
km/h
Gust
km/h
Spd
kts
Gust
kts
31/11:30pm 11.8 12.1 10.9 94 0.5 CALM 0 0 0 0 1018.9 1018.9 0.2
31/11:00pm 12.2 12.6 11.4 95 0.4 CALM 0 0 0 0 1019.1 1019.1 0.2
31/10:30pm 12.2 12.6 11.3 94 0.5 CALM 0 0 0 0 1019.0 1019.0 0.2
31/10:00pm 12.7 13.2 11.6 93 0.6 CALM 0 0 0 0 1018.8 1018.8 0.2
31/09:30pm 12.8 13.3 11.7 93 0.6 CALM 0 0 0 0 1018.8 1018.8 0.2
31/09:00pm 13.3 13.9 12.0 92 0.7 CALM 0 0 0 0 1018.7 1018.7 0.2
31/08:30pm 13.9 14.7 12.6 92 0.7 CALM 0 0 0 0 1018.6 1018.6 0.2
31/08:00pm 14.2 15.1 12.8 91 0.8 CALM 0 0 0 0 1018.4 1018.4 0.2
31/07:30pm 14.8 15.8 13.2 90 0.9 CALM 0 0 0 0 1018.2 1018.2 0.2
31/07:00pm 15.8 16.1 13.3 85 1.4 NE 4 7 2 4 1017.7 1017.6 0.2
31/06:30pm 17.7 18.0 14.6 82 1.8 NNE 6 7 3 4 1017.3 1017.2 0.2
31/06:00pm 18.1 17.7 14.2 78 2.2 NNE 9 11 5 6 1016.8 1016.7 0.2
31/05:30pm 19.3 18.3 13.5 69 3.3 NNE 11 15 6 8 1016.7 1016.6 0.2
31/05:00pm 20.5 18.4 11.2 55 5.1 NNE 13 15 7 8 1016.5 1016.4 0.2
31/04:30pm 21.3 19.1 10.8 51 5.8 N 13 19 7 10 1016.1 1016.0 0.2
31/04:00pm 21.5 18.5 10.6 50 6.0 NNE 17 24 9 13 1016.0 1015.9 0.2
31/03:30pm 21.7 19.1 10.8 50 6.0 N 15 22 8 12 1015.9 1015.8 0.2
31/03:00pm 22.1 19.3 11.5 51 5.9 N 17 22 9 12 1015.9 1015.8 0.2
31/02:30pm 22.7 20.6 11.1 48 6.4 N 13 15 7 8 1016.0 1015.9 0.2
31/02:00pm 22.5 20.3 10.9 48 6.4 N 13 20 7 11 1016.1 1016.0 0.2
31/01:30pm 22.9 21.4 13.1 54 5.6 NNE 13 17 7 9 1016.4 1016.3 0.2
31/01:00pm 22.5 20.8 12.4 52 5.7 N 13 17 7 9 1016.7 1016.6 0.2
31/12:30pm 22.3 20.6 12.5 53 5.6 NNE 13 19 7 10 1017.1 1017.0 0.2
31/12:00pm 22.7 21.8 13.7 56 5.2 NNE 11 19 6 10 1017.5 1017.4 0.0
31/11:30am 21.8 20.7 14.2 62 4.4 ENE 13 20 7 11 1018.2 1018.2 0.0
31/11:00am 21.2 19.9 13.6 62 4.4 E 13 17 7 9 1018.5 1018.5 0.0
31/10:30am 21.4 20.2 12.8 58 4.9 E 11 15 6 8 1018.7 1018.7 0.0
31/10:00am 21.5 20.9 11.8 54 5.4 SW 6 9 3 5 1019.1 1019.1 0.0
31/09:30am 20.2 19.8 12.9 63 4.1 SW 7 11 4 6 1019.3 1019.3 0.0
31/09:00am 18.5 18.2 13.4 72 2.9 SSW 7 9 4 5 1019.3 1019.3 0.0
31/08:30am 17.2 16.5 13.1 77 2.3 SSW 9 13 5 7 1019.5 1019.5 0.0
31/08:00am 15.3 14.8 12.8 85 1.4 SW 7 9 4 5 1019.4 1019.4 0.0
31/07:30am 13.6 12.9 12.0 90 0.9 SSW 7 9 4 5 1019.1 1019.1 0.0
31/07:00am 11.9 11.1 11.0 94 0.5 S 6 9 3 5 1019.0 1019.0 0.0
31/06:30am 10.2 10.1 9.6 96 0.3 CALM 0 0 0 0 1018.7 1018.7 0.0
31/06:00am 9.0 8.6 8.4 96 0.3 CALM 0 6 0 3 1018.3 1018.3 0.0
31/05:30am 9.0 8.6 8.2 95 0.4 CALM 0 0 0 0 1018.2 1018.2 0.0
31/05:00am 9.4 9.1 8.8 96 0.3 CALM 0 0 0 0 1018.0 1018.0 0.0
31/04:30am 9.3 8.3 8.7 96 0.3 WSW 4 6 2 3 1017.8 1017.7 0.0
31/04:00am 9.2 8.1 8.6 96 0.3 WSW 4 7 2 4 1017.9 1017.8 0.0
31/03:30am 9.4 9.1 8.6 95 0.4 CALM 0 0 0 0 1017.8 1017.7 0.0
31/03:00am 9.5 9.2 8.7 95 0.4 CALM 0 0 0 0 1017.9 1017.8 0.0
31/02:30am 9.7 9.4 8.8 94 0.4 CALM 0 0 0 0 1018.1 1018.1 0.0
31/02:00am 10.2 10.1 9.4 95 0.4 CALM 0 0 0 0 1018.2 1018.2 0.0
31/01:30am 10.5 10.1 9.7 95 0.4 SE 2 7 1 4 1018.3 1018.3 0.0
31/01:00am 10.9 11.0 10.1 95 0.4 CALM 0 0 0 0 1018.4 1018.4 0.0
31/12:30am 10.8 10.9 10.2 96 0.3 CALM 0 0 0 0 1018.8 1018.8 0.0
31/12:00am 10.4 9.6 9.6 95 0.4 NE 4 6 2 3 1019.0 1019.0 0.0
 
Date/Time
EST
Temp
°C
App
Temp
°C
Dew
Point
Rel
Hum
%
Delta-T
°C
Wind Press
QNH
hPa
Press
MSL
hPa
Rain
since 9 am
mm
Dir
 
Spd
km/h
Gust
km/h
Spd
kts
Gust
kts
30/11:30pm 10.3 10.2 9.5 95 0.4 CALM 0 0 0 0 1019.2 1019.2 0.0
30/11:00pm 10.6 10.6 9.7 94 0.5 CALM 0 0 0 0 1019.2 1019.2 0.0
30/10:30pm 10.9 11.0 10.0 94 0.5 CALM 0 0 0 0 1019.2 1019.2 0.0
30/10:00pm 10.9 11.0 10.0 94 0.5 CALM 0 0 0 0 1019.4 1019.4 0.0
30/09:30pm 11.3 11.5 10.4 94 0.5 CALM 0 0 0 0 1019.3 1019.3 0.0
30/09:00pm 11.4 10.4 10.3 93 0.6 NE 6 7 3 4 1019.2 1019.2 0.0
30/08:30pm 11.6 11.7 10.3 92 0.7 CALM 0 0 0 0 1019.1 1019.1 0.0
30/08:00pm 12.4 12.8 11.1 92 0.7 CALM 0 0 0 0 1018.8 1018.8 0.0
30/07:30pm 12.8 13.2 11.4 91 0.7 CALM 0 0 0 0 1018.4 1018.4 0.0
30/07:00pm 13.5 13.0 11.9 90 0.9 NE 6 7 3 4 1018.0 1018.0 0.0
30/06:30pm 14.2 14.8 11.9 86 1.2 CALM 0 0 0 0 1017.6 1017.5 0.0
30/06:00pm 16.1 15.4 12.1 77 2.2 E 7 7 4 4 1017.3 1017.2 0.0
30/05:30pm 17.9 17.2 11.5 66 3.5 NNE 6 7 3 4 1017.0 1016.9 0.0
30/05:00pm 19.4 18.1 11.4 60 4.4 N 9 15 5 8 1016.8 1016.7 0.0
30/04:30pm 20.1 18.3 10.8 55 5.1 N 11 15 6 8 1016.6 1016.5 0.0

Other Formats:

Comma delimited format used in spreadsheet applications
http://www.bom.gov.au/fwo/IDQ60801/IDQ60801.95565.axf

JavaScript Object Notation format (JSON) in row-major order
http://www.bom.gov.au/fwo/IDQ60801/IDQ60801.95565.json